createdAt,value
2023-03-02T00:02:27.071Z,99.90
2023-03-02T00:07:36.755Z,99.90
2023-03-02T00:12:43.151Z,99.90
2023-03-02T00:17:49.424Z,99.90
2023-03-02T00:22:55.764Z,99.90
2023-03-02T00:28:02.077Z,99.90
2023-03-02T00:33:09.714Z,99.90
2023-03-02T00:38:16.529Z,99.90
2023-03-02T00:43:24.597Z,99.90
2023-03-02T00:48:30.895Z,99.90
2023-03-02T00:53:37.252Z,99.90
2023-03-02T00:58:44.068Z,99.90
2023-03-02T01:03:50.628Z,99.90
2023-03-02T01:08:58.126Z,99.90
2023-03-02T01:14:04.272Z,99.90
2023-03-02T01:19:11.813Z,99.90
2023-03-02T01:24:18.220Z,99.90
2023-03-02T01:29:24.619Z,99.90
2023-03-02T01:34:31.076Z,99.90
2023-03-02T01:39:56.563Z,99.90
2023-03-02T01:45:03.589Z,99.90
2023-03-02T01:50:21.000Z,99.90
2023-03-02T01:55:33.403Z,99.90
2023-03-02T02:00:41.537Z,99.90
2023-03-02T02:06:11.643Z,99.90
2023-03-02T02:11:18.324Z,99.90
2023-03-02T02:16:30.683Z,99.90
2023-03-02T02:21:37.848Z,99.90
2023-03-02T02:26:56.622Z,99.90
2023-03-02T02:32:15.816Z,99.90
2023-03-02T02:37:27.020Z,99.90
2023-03-02T02:42:38.676Z,99.90
2023-03-02T02:47:45.420Z,99.90
2023-03-02T02:53:10.127Z,99.70
2023-03-02T02:58:42.387Z,99.90
2023-03-02T03:04:01.444Z,98.60
2023-03-02T03:09:09.961Z,99.60
2023-03-02T03:14:32.930Z,98.80
2023-03-02T03:19:39.055Z,97.30
2023-03-02T03:24:48.708Z,96.20
2023-03-02T03:29:57.318Z,96.70
2023-03-02T03:35:10.274Z,94.90
2023-03-02T03:40:17.551Z,94.30
2023-03-02T03:45:25.476Z,93.60
2023-03-02T03:50:32.207Z,93.70
2023-03-02T03:55:38.687Z,93.60
2023-03-02T04:00:44.874Z,93.00
2023-03-02T04:05:51.262Z,92.60
2023-03-02T04:10:58.050Z,90.90
2023-03-02T04:16:04.995Z,91.40
2023-03-02T04:21:11.627Z,90.70
2023-03-02T04:32:52.655Z,91.60
2023-03-02T04:38:01.078Z,90.20
2023-03-02T04:43:07.674Z,91.00
2023-03-02T04:48:14.169Z,85.90
2023-03-02T04:53:20.522Z,80.30
2023-03-02T04:58:26.877Z,71.90
2023-03-02T05:03:33.318Z,74.20
2023-03-02T05:08:39.798Z,76.30
2023-03-02T05:13:46.350Z,71.60
2023-03-02T05:18:53.006Z,75.70
2023-03-02T05:24:12.056Z,72.00
2023-03-02T05:29:18.709Z,70.40
2023-03-02T05:34:24.858Z,70.60
2023-03-02T05:39:34.315Z,73.20
2023-03-02T05:44:40.324Z,71.50
2023-03-02T05:49:49.943Z,73.00
2023-03-02T05:54:59.086Z,76.70
2023-03-02T06:00:13.807Z,77.20
2023-03-02T06:05:24.387Z,75.10
2023-03-02T06:10:31.173Z,73.00
2023-03-02T06:15:44.974Z,78.40
2023-03-02T06:39:50.149Z,77.80
2023-03-02T06:45:00.961Z,79.30
2023-03-02T06:50:07.908Z,82.10
2023-03-02T06:55:15.795Z,83.20
2023-03-02T07:00:28.485Z,85.60
2023-03-02T07:05:35.328Z,80.60
2023-03-02T07:16:32.979Z,80.90
2023-03-02T07:21:51.033Z,83.30
2023-03-02T07:27:30.005Z,81.70
2023-03-02T07:32:36.566Z,79.20
2023-03-02T07:37:43.279Z,77.80
2023-03-02T07:42:50.079Z,77.90
2023-03-02T07:47:57.606Z,80.00
2023-03-02T07:53:04.871Z,81.30
2023-03-02T07:58:11.571Z,83.00
2023-03-02T08:03:18.032Z,84.20
2023-03-02T08:08:24.813Z,85.50
2023-03-02T08:13:31.330Z,86.00
2023-03-02T08:18:38.446Z,85.90
2023-03-02T08:23:45.008Z,86.20
2023-03-02T08:28:51.680Z,84.90
2023-03-02T08:34:01.386Z,83.00
2023-03-02T08:39:11.638Z,81.40
2023-03-02T08:44:19.965Z,80.30
2023-03-02T08:49:28.656Z,81.10
2023-03-02T08:54:39.268Z,82.50
2023-03-02T08:59:48.528Z,82.40
2023-03-02T09:04:58.839Z,82.30
2023-03-02T09:10:05.825Z,82.60
2023-03-02T09:15:13.646Z,83.40
2023-03-02T09:20:20.474Z,84.50
2023-03-02T09:25:27.028Z,85.30
2023-03-02T09:30:34.349Z,86.30
2023-03-02T09:35:42.365Z,86.90
2023-03-02T09:41:15.000Z,87.40
2023-03-02T09:46:40.576Z,87.80
2023-03-02T09:52:23.261Z,88.10
2023-03-02T09:57:38.597Z,88.60
2023-03-02T10:03:16.242Z,88.80
2023-03-02T10:08:26.918Z,89.40
2023-03-02T10:13:56.870Z,90.00
2023-03-02T10:19:29.598Z,90.50
2023-03-02T10:24:42.713Z,91.30
2023-03-02T10:30:11.136Z,92.10
2023-03-02T10:35:24.747Z,92.60
2023-03-02T10:40:47.849Z,93.30
2023-03-02T10:46:06.321Z,93.80
2023-03-02T10:51:25.449Z,93.90
2023-03-02T10:56:32.630Z,94.10
2023-03-02T11:01:39.072Z,94.40
2023-03-02T11:06:45.306Z,94.80
2023-03-02T11:12:02.738Z,95.80
2023-03-02T11:17:40.460Z,96.10
2023-03-02T11:23:15.203Z,96.60
2023-03-02T11:28:54.974Z,97.00
2023-03-02T11:34:19.666Z,97.90
2023-03-02T11:39:32.147Z,99.10
2023-03-02T11:44:38.542Z,99.70
2023-03-02T11:50:00.120Z,99.90
2023-03-02T11:55:16.812Z,99.90
2023-03-02T12:00:34.054Z,99.90
2023-03-02T12:05:41.712Z,99.90
2023-03-02T12:11:02.014Z,99.90
2023-03-02T12:16:24.316Z,99.90
2023-03-02T12:21:42.259Z,99.90
2023-03-02T12:26:48.837Z,99.90
2023-03-02T12:31:57.803Z,99.90
2023-03-02T12:37:20.381Z,99.90
2023-03-02T12:42:42.155Z,99.90
2023-03-02T12:47:53.651Z,99.90
2023-03-02T12:53:02.869Z,99.90
2023-03-02T12:58:27.127Z,99.90
2023-03-02T13:03:35.112Z,99.90
2023-03-02T13:08:49.373Z,99.90
2023-03-02T13:14:02.682Z,99.90
2023-03-02T13:19:24.110Z,99.90
2023-03-02T13:24:57.170Z,99.90
2023-03-02T13:35:58.201Z,99.90
2023-03-02T13:41:25.898Z,99.90
2023-03-02T13:46:58.893Z,99.90
2023-03-02T13:52:30.278Z,99.90
2023-03-02T13:58:12.697Z,99.90
2023-03-02T14:09:15.629Z,99.90
2023-03-02T14:20:12.776Z,99.90
2023-03-02T14:25:23.041Z,99.90
2023-03-02T14:30:37.379Z,99.90
2023-03-02T14:35:50.238Z,99.90
2023-03-02T14:41:01.384Z,99.90
2023-03-02T14:46:48.392Z,99.90
2023-03-02T14:52:20.957Z,99.90
2023-03-02T14:57:44.834Z,99.90
2023-03-02T15:03:13.677Z,99.90
2023-03-02T15:08:26.275Z,99.90
2023-03-02T15:13:35.134Z,99.90
2023-03-02T15:18:57.776Z,99.90
2023-03-02T15:24:09.502Z,99.90
2023-03-02T15:29:23.506Z,99.90
2023-03-02T15:34:43.308Z,99.90
2023-03-02T15:40:25.846Z,99.90
2023-03-02T15:45:37.782Z,99.90
2023-03-02T15:50:45.391Z,99.90
2023-03-02T15:55:55.123Z,99.90
2023-03-02T16:01:32.239Z,99.90
2023-03-02T16:06:39.152Z,99.90
2023-03-02T16:11:52.823Z,99.90
2023-03-02T16:29:28.619Z,99.90
2023-03-02T16:34:35.219Z,99.90
2023-03-02T16:39:41.527Z,99.90
2023-03-02T16:44:53.322Z,99.90
2023-03-02T16:50:00.347Z,99.90
2023-03-02T16:55:10.052Z,99.90
2023-03-02T17:00:19.431Z,99.90
2023-03-02T17:05:36.467Z,99.90
2023-03-02T17:10:43.561Z,99.90
2023-03-02T17:28:35.091Z,99.90
2023-03-02T17:33:42.004Z,99.90
2023-03-02T17:38:48.370Z,99.90
2023-03-02T17:43:54.642Z,99.90
2023-03-02T17:49:02.919Z,99.90
2023-03-02T17:54:10.577Z,99.90
2023-03-02T17:59:16.849Z,99.90
2023-03-02T18:04:23.424Z,99.90
2023-03-02T18:09:30.110Z,99.90
2023-03-02T18:14:37.893Z,99.90
2023-03-02T18:19:44.559Z,99.90
2023-03-02T18:24:52.124Z,99.90
2023-03-02T18:29:58.095Z,99.90
2023-03-02T18:35:04.423Z,99.90
2023-03-02T18:40:11.457Z,99.90
2023-03-02T18:45:26.289Z,99.90
2023-03-02T18:50:33.211Z,99.90
2023-03-02T18:55:39.609Z,99.90
2023-03-02T19:00:47.562Z,99.90
2023-03-02T19:05:57.605Z,99.90
2023-03-02T19:11:04.898Z,99.90
2023-03-02T19:16:14.195Z,99.90
2023-03-02T19:21:20.914Z,99.90
2023-03-02T19:26:27.183Z,99.90
2023-03-02T19:31:35.015Z,99.90
2023-03-02T19:36:41.405Z,99.90
2023-03-02T19:41:48.723Z,99.90
2023-03-02T19:46:55.387Z,99.90
2023-03-02T19:52:02.458Z,99.90
2023-03-02T19:57:09.833Z,99.90
2023-03-02T20:02:17.447Z,99.90
2023-03-02T20:07:23.667Z,99.90
2023-03-02T20:12:30.007Z,99.90
2023-03-02T20:17:36.566Z,99.90
2023-03-02T20:22:42.805Z,99.90
2023-03-02T20:27:51.237Z,99.90
2023-03-02T20:32:59.111Z,99.90
2023-03-02T20:38:09.777Z,99.90
2023-03-02T20:43:16.530Z,99.90
2023-03-02T20:48:24.025Z,99.90
2023-03-02T20:53:31.469Z,99.90
2023-03-02T20:58:42.816Z,99.90
2023-03-02T21:03:49.250Z,99.90
2023-03-02T21:08:56.088Z,99.90
2023-03-02T21:14:03.725Z,99.90
2023-03-02T21:19:16.933Z,99.90
2023-03-02T21:24:24.518Z,99.90
2023-03-02T21:29:31.893Z,99.90
2023-03-02T21:34:38.912Z,99.90
2023-03-02T21:39:45.409Z,99.90
2023-03-02T21:44:51.121Z,99.90
2023-03-02T21:49:57.158Z,99.90
2023-03-02T21:55:03.395Z,99.90
2023-03-02T22:00:11.778Z,99.90
2023-03-02T22:05:18.615Z,99.90
2023-03-02T22:10:36.716Z,99.90
2023-03-02T22:15:43.887Z,99.90
2023-03-02T22:20:54.153Z,99.90
2023-03-02T22:26:14.801Z,99.90
2023-03-02T22:31:24.064Z,99.90
2023-03-02T22:36:31.818Z,99.90
2023-03-02T22:41:38.144Z,99.90
2023-03-02T22:47:21.755Z,99.90
2023-03-02T22:52:40.033Z,99.90
2023-03-02T22:59:01.889Z,99.90
2023-03-02T23:04:28.684Z,99.90
2023-03-02T23:09:37.709Z,99.90
2023-03-02T23:14:59.107Z,99.90
2023-03-02T23:20:06.778Z,99.90
2023-03-02T23:25:44.022Z,99.90
2023-03-02T23:30:50.697Z,99.90
2023-03-02T23:35:57.497Z,99.90
2023-03-02T23:41:04.373Z,99.90
2023-03-02T23:46:15.609Z,99.90
2023-03-02T23:51:22.535Z,99.90
2023-03-02T23:56:29.126Z,99.90
